Time;durP1;ratioP1;P1;durP2;ratioP2;P2;SDS_P1;SDS_P2;PMS_P1;PMS_P2;Temp;Humidity;BMP_temperature;BMP_pressure;BME280_temperature;BME280_humidity;BME280_pressure;Samples;Min_cycle;Max_cycle;Signal;HPM_P1;HPM_P2
2021/10/08 00:01:32;;;;;;;6.40;3.45;;;5.40;99.90;;;;;;5051988;28;20064;-79
2021/10/08 00:04:00;;;;;;;3.30;1.63;;;5.40;99.90;;;;;;5064899;28;20053;-78
2021/10/08 00:06:26;;;;;;;2.40;2.20;;;5.40;99.90;;;;;;5060559;28;20045;-80
2021/10/08 00:08:52;;;;;;;2.92;2.45;;;5.50;99.90;;;;;;5061304;28;20398;-78
2021/10/08 00:11:17;;;;;;;3.50;3.00;;;5.60;99.90;;;;;;5068734;28;20080;-81
2021/10/08 00:13:44;;;;;;;2.80;2.42;;;5.60;99.90;;;;;;5063461;28;20126;-80
2021/10/08 00:16:11;;;;;;;4.60;2.40;;;5.60;99.90;;;;;;5053283;28;20502;-79
2021/10/08 00:18:37;;;;;;;3.63;2.30;;;5.90;99.90;;;;;;5055406;28;20040;-79
2021/10/08 00:21:04;;;;;;;12.70;3.15;;;5.70;99.90;;;;;;5051247;28;20502;-78
2021/10/08 00:23:29;;;;;;;5.20;2.88;;;5.70;99.90;;;;;;5057704;28;20432;-78
2021/10/08 00:25:56;;;;;;;3.92;2.40;;;5.80;99.90;;;;;;5067880;28;20041;-79
2021/10/08 00:28:22;;;;;;;3.72;2.40;;;5.80;99.90;;;;;;5059122;28;20389;-81
2021/10/08 00:30:48;;;;;;;8.90;2.72;;;5.80;99.90;;;;;;5048011;28;20044;-80
2021/10/08 00:33:13;;;;;;;;;;;5.80;99.90;;;;;;5064033;28;20036;-80
2021/10/08 00:35:39;;;;;;;3.05;2.33;;;5.90;99.90;;;;;;5058321;28;20284;-78
2021/10/08 00:38:06;;;;;;;2.97;2.45;;;6.00;99.90;;;;;;5064488;28;20048;-80
2021/10/08 00:40:45;;;;;;;3.13;2.83;;;5.90;99.90;;;;;;5063134;28;20466;-82
2021/10/08 00:43:12;;;;;;;2.28;2.10;;;5.90;99.90;;;;;;5052522;28;20397;-79
2021/10/08 00:45:38;;;;;;;3.08;2.20;;;5.90;99.90;;;;;;5046692;28;20045;-80
2021/10/08 00:48:06;;;;;;;7.32;2.45;;;5.90;99.90;;;;;;5059238;28;20083;-80
2021/10/08 00:50:35;;;;;;;4.43;1.80;;;5.90;99.90;;;;;;5040472;28;20698;-82
2021/10/08 00:53:00;;;;;;;5.35;2.53;;;5.90;99.90;;;;;;5049735;28;20049;-79
2021/10/08 00:55:26;;;;;;;3.88;2.90;;;5.90;99.90;;;;;;5059926;28;20124;-80
2021/10/08 00:57:52;;;;;;;17.23;2.83;;;5.90;99.90;;;;;;5061735;28;20036;-79
2021/10/08 01:00:18;;;;;;;2.70;1.83;;;5.90;99.90;;;;;;5049696;28;20053;-80
2021/10/08 01:02:44;;;;;;;;;;;5.90;99.90;;;;;;5049814;28;20394;-81
2021/10/08 01:05:10;;;;;;;2.05;1.85;;;5.90;99.90;;;;;;5045589;28;19922;-82
2021/10/08 01:07:37;;;;;;;3.22;2.55;;;6.00;99.90;;;;;;5064181;28;20064;-79
2021/10/08 01:10:06;;;;;;;4.05;3.03;;;6.00;99.90;;;;;;5071613;28;20036;-82
2021/10/08 01:12:34;;;;;;;3.03;2.38;;;6.00;99.90;;;;;;5064434;28;20120;-79
2021/10/08 01:14:59;;;;;;;4.28;2.13;;;6.10;99.90;;;;;;5071651;28;20167;-81
2021/10/08 01:17:25;;;;;;;5.65;2.83;;;6.00;99.90;;;;;;5060377;28;20533;-81
2021/10/08 01:19:52;;;;;;;2.30;2.08;;;6.00;99.90;;;;;;5056269;28;20072;-82
2021/10/08 01:22:18;;;;;;;4.97;3.60;;;6.10;99.90;;;;;;5057685;28;21243;-81
2021/10/08 01:24:43;;;;;;;4.05;3.08;;;6.10;99.90;;;;;;5046914;28;20037;-79
2021/10/08 01:27:09;;;;;;;8.10;3.47;;;6.00;99.90;;;;;;5061104;28;20041;-83
2021/10/08 01:29:46;;;;;;;;;;;6.00;99.90;;;;;;5045200;28;20074;-83
2021/10/08 01:32:12;;;;;;;2.95;2.30;;;5.90;99.90;;;;;;5062303;28;20046;-80
2021/10/08 01:34:38;;;;;;;4.70;3.33;;;5.90;99.90;;;;;;5064906;28;20135;-82
2021/10/08 01:37:03;;;;;;;2.83;1.90;;;5.80;99.90;;;;;;5056738;28;20179;-81
2021/10/08 01:39:29;;;;;;;2.28;2.05;;;5.80;99.90;;;;;;5051392;28;20153;-80
2021/10/08 01:41:55;;;;;;;4.53;3.20;;;5.80;99.90;;;;;;5051658;28;20044;-83
2021/10/08 01:44:21;;;;;;;9.82;4.13;;;5.80;99.90;;;;;;5078686;28;20120;-83
2021/10/08 01:46:51;;;;;;;2.17;1.75;;;5.80;99.90;;;;;;5055512;28;20040;-80
2021/10/08 01:49:17;;;;;;;3.22;2.45;;;5.80;99.90;;;;;;5070253;28;20292;-82
2021/10/08 01:51:43;;;;;;;2.03;1.90;;;5.80;99.90;;;;;;5057100;28;20133;-81
2021/10/08 01:54:10;;;;;;;3.17;2.53;;;5.90;99.90;;;;;;5040073;28;20037;-78
2021/10/08 01:56:40;;;;;;;3.42;2.10;;;5.90;99.90;;;;;;5052819;28;20091;-79
2021/10/08 01:59:06;;;;;;;6.57;2.47;;;5.90;99.90;;;;;;5060895;28;20281;-81
2021/10/08 02:01:32;;;;;;;4.53;2.60;;;5.90;99.90;;;;;;5058224;28;20128;-80
2021/10/08 02:03:57;;;;;;;3.85;3.00;;;5.90;99.90;;;;;;5051252;28;20048;-80
2021/10/08 02:06:23;;;;;;;5.05;3.10;;;5.90;99.90;;;;;;5052668;28;20041;-80
2021/10/08 02:08:49;;;;;;;10.00;3.45;;;5.90;99.90;;;;;;5059830;28;20359;-79
2021/10/08 02:11:14;;;;;;;6.10;3.40;;;6.00;99.90;;;;;;5054372;28;20443;-81
2021/10/08 02:13:40;;;;;;;3.17;2.88;;;5.90;99.90;;;;;;5054401;28;20119;-81
2021/10/08 02:16:08;;;;;;;3.25;2.97;;;5.90;99.90;;;;;;5052468;28;20082;-82
2021/10/08 02:18:33;;;;;;;3.40;2.58;;;5.90;99.90;;;;;;5066533;28;20127;-81
2021/10/08 02:20:59;;;;;;;4.40;1.73;;;5.90;99.90;;;;;;5054593;28;20115;-80
2021/10/08 02:23:25;;;;;;;3.70;2.15;;;5.80;99.90;;;;;;5069208;28;20044;-80
2021/10/08 02:25:51;;;;;;;3.50;2.70;;;5.80;99.90;;;;;;5067030;28;20065;-78
2021/10/08 02:28:17;;;;;;;2.03;1.52;;;5.80;99.90;;;;;;5058872;28;20052;-81
2021/10/08 02:30:43;;;;;;;3.58;2.38;;;5.70;99.90;;;;;;5058717;28;20041;-79
2021/10/08 02:33:09;;;;;;;4.03;2.28;;;5.70;99.90;;;;;;5058485;28;20048;-81
2021/10/08 02:35:34;;;;;;;2.03;1.58;;;5.70;99.90;;;;;;5055145;28;20082;-82
2021/10/08 02:38:00;;;;;;;8.40;3.45;;;5.70;99.90;;;;;;5052330;28;20041;-81
2021/10/08 02:40:26;;;;;;;3.17;2.55;;;5.70;99.90;;;;;;5055140;28;20193;-78
2021/10/08 02:42:52;;;;;;;5.50;3.20;;;5.60;99.90;;;;;;5071390;28;20052;-81
2021/10/08 02:45:19;;;;;;;5.70;2.72;;;5.60;99.90;;;;;;5070701;28;20363;-80
2021/10/08 02:47:46;;;;;;;2.45;1.95;;;5.60;99.90;;;;;;5054429;28;20044;-80
2021/10/08 02:50:11;;;;;;;;;;;5.60;99.90;;;;;;5046794;28;20048;-79
2021/10/08 02:52:37;;;;;;;8.20;2.38;;;5.60;99.90;;;;;;5052528;28;19943;-81
2021/10/08 02:55:07;;;;;;;4.50;2.25;;;5.60;99.90;;;;;;5065878;28;20581;-82
2021/10/08 02:57:35;;;;;;;7.20;2.95;;;5.60;99.90;;;;;;5053368;28;20051;-81
2021/10/08 03:00:02;;;;;;;2.80;2.13;;;5.60;99.90;;;;;;5062494;28;20061;-83
2021/10/08 03:02:28;;;;;;;5.30;2.72;;;5.60;99.90;;;;;;5034764;28;20087;-82
2021/10/08 03:04:55;;;;;;;4.18;2.70;;;5.60;99.90;;;;;;5054216;28;20425;-83
2021/10/08 03:07:21;;;;;;;3.10;1.85;;;5.60;99.90;;;;;;5054996;28;20036;-82
2021/10/08 03:09:47;;;;;;;2.22;1.80;;;5.70;99.90;;;;;;5060010;28;20037;-81
2021/10/08 03:12:13;;;;;;;2.42;1.95;;;5.70;99.90;;;;;;5050705;28;20632;-79
2021/10/08 03:14:38;;;;;;;6.78;3.20;;;5.70;99.90;;;;;;5052571;28;20044;-79
2021/10/08 03:17:04;;;;;;;3.75;2.30;;;5.70;99.90;;;;;;5053141;28;20406;-81
2021/10/08 03:19:30;;;;;;;3.58;1.35;;;5.70;99.90;;;;;;5056519;28;20048;-81
2021/10/08 03:21:56;;;;;;;2.70;2.50;;;5.70;99.90;;;;;;5052449;28;20033;-81
2021/10/08 03:24:22;;;;;;;2.78;2.05;;;5.80;99.90;;;;;;5062698;28;20489;-79
2021/10/08 03:26:47;;;;;;;4.47;2.53;;;6.00;99.90;;;;;;5050592;28;20410;-80
2021/10/08 03:29:13;;;;;;;3.72;2.38;;;5.80;99.90;;;;;;5060192;28;20043;-81
2021/10/08 03:31:40;;;;;;;11.77;3.20;;;5.90;99.90;;;;;;5065387;28;20048;-81
2021/10/08 03:34:06;;;;;;;1.67;1.35;;;5.80;99.90;;;;;;5054438;28;20048;-81
2021/10/08 03:39:08;;;;;;;2.80;2.28;;;5.80;99.90;;;;;;5055677;28;20059;-81
2021/10/08 03:41:35;;;;;;;1.67;1.58;;;6.00;99.90;;;;;;5058677;28;20051;-78
2021/10/08 03:44:02;;;;;;;5.05;3.47;;;5.80;99.90;;;;;;5051216;28;20045;-78
2021/10/08 03:46:33;;;;;;;4.65;2.85;;;5.80;99.90;;;;;;5060334;28;20124;-83
2021/10/08 03:49:12;;;;;;;1.42;1.25;;;5.70;99.90;;;;;;5040566;28;20381;-81
2021/10/08 03:51:37;;;;;;;2.53;2.33;;;5.70;99.90;;;;;;5059972;28;20732;-78
2021/10/08 03:54:04;;;;;;;3.15;2.88;;;5.70;99.90;;;;;;5042429;28;20136;-79
2021/10/08 03:56:30;;;;;;;4.22;2.42;;;5.70;99.90;;;;;;5066930;28;20047;-79
2021/10/08 03:58:57;;;;;;;4.22;2.55;;;5.60;99.90;;;;;;5051037;28;20033;-80
2021/10/08 04:01:23;;;;;;;2.88;2.58;;;5.60;99.90;;;;;;5051132;28;20128;-80
2021/10/08 04:03:50;;;;;;;11.63;2.85;;;5.60;99.90;;;;;;5063346;28;20120;-83
2021/10/08 04:06:16;;;;;;;3.55;2.80;;;5.50;99.90;;;;;;5059348;28;20051;-81
2021/10/08 04:08:42;;;;;;;2.22;2.03;;;5.40;99.90;;;;;;5070900;28;20048;-81
2021/10/08 04:11:09;;;;;;;3.42;2.60;;;5.40;99.90;;;;;;5041871;28;20044;-79
2021/10/08 04:13:35;;;;;;;2.47;2.22;;;5.40;99.90;;;;;;5058072;28;20087;-78
2021/10/08 04:16:00;;;;;;;4.25;2.58;;;5.40;99.90;;;;;;5065285;28;20064;-80
2021/10/08 04:18:26;;;;;;;3.25;2.53;;;5.40;99.90;;;;;;5061729;28;20048;-80
2021/10/08 04:20:52;;;;;;;2.63;1.67;;;5.30;99.90;;;;;;5048943;28;20032;-78
2021/10/08 04:23:18;;;;;;;1.70;1.60;;;5.30;99.90;;;;;;5062200;28;20052;-84
2021/10/08 04:25:45;;;;;;;2.15;1.95;;;5.30;99.90;;;;;;5061752;28;20076;-80
2021/10/08 04:28:11;;;;;;;4.38;2.25;;;5.20;99.90;;;;;;5060664;28;20044;-82
2021/10/08 04:30:36;;;;;;;2.35;2.08;;;5.20;99.90;;;;;;5070538;28;20045;-82
2021/10/08 04:33:02;;;;;;;1.85;1.67;;;5.20;99.90;;;;;;5053933;28;20037;-82
2021/10/08 04:35:28;;;;;;;3.13;1.75;;;5.20;99.90;;;;;;5057615;28;20049;-80
2021/10/08 04:37:54;;;;;;;1.83;1.63;;;5.20;99.90;;;;;;5063449;28;20048;-81
2021/10/08 04:40:19;;;;;;;3.30;2.20;;;5.10;99.90;;;;;;5060874;28;20410;-82
2021/10/08 04:42:45;;;;;;;3.00;1.90;;;5.10;99.90;;;;;;5070415;28;20037;-81
2021/10/08 04:45:11;;;;;;;3.63;2.08;;;5.00;99.90;;;;;;5055277;28;20126;-80
2021/10/08 04:47:36;;;;;;;3.20;2.90;;;5.00;99.90;;;;;;5066629;28;20542;-80
2021/10/08 04:50:03;;;;;;;3.72;2.50;;;5.00;99.90;;;;;;5041689;28;20049;-81
2021/10/08 04:52:29;;;;;;;3.78;1.65;;;5.00;99.90;;;;;;5057417;28;20107;-79
2021/10/08 04:54:55;;;;;;;2.97;1.92;;;5.00;99.90;;;;;;5061191;28;20056;-81
2021/10/08 04:57:21;;;;;;;3.85;2.15;;;5.00;99.90;;;;;;5072421;28;20534;-82
2021/10/08 04:59:47;;;;;;;2.80;2.40;;;4.90;99.90;;;;;;5045145;28;20130;-78
2021/10/08 05:02:12;;;;;;;2.55;2.35;;;4.90;99.90;;;;;;5065144;28;20072;-81
2021/10/08 05:04:38;;;;;;;3.08;1.83;;;4.80;99.90;;;;;;5045131;28;20041;-83
2021/10/08 05:07:04;;;;;;;2.33;2.13;;;4.80;99.90;;;;;;5062758;28;20105;-81
2021/10/08 05:09:29;;;;;;;1.55;1.45;;;4.70;99.90;;;;;;5052988;28;20059;-79
2021/10/08 05:11:55;;;;;;;1.45;1.35;;;4.80;99.90;;;;;;5048665;28;20045;-81
2021/10/08 05:14:21;;;;;;;3.13;2.83;;;4.70;99.90;;;;;;5064590;28;20095;-79
2021/10/08 05:16:46;;;;;;;1.92;1.65;;;4.70;99.90;;;;;;5065117;28;20051;-81
2021/10/08 05:19:12;;;;;;;3.53;2.53;;;4.70;99.90;;;;;;5065081;28;20390;-80
2021/10/08 05:21:38;;;;;;;3.20;2.72;;;4.80;99.90;;;;;;5046307;28;20052;-80
2021/10/08 05:24:04;;;;;;;2.97;1.88;;;4.60;99.90;;;;;;5065755;28;20040;-79
2021/10/08 05:26:30;;;;;;;1.83;1.65;;;4.60;99.90;;;;;;5062722;28;20048;-78
2021/10/08 05:28:55;;;;;;;3.88;2.80;;;4.60;99.90;;;;;;5045132;28;20479;-82
2021/10/08 05:31:21;;;;;;;3.05;2.65;;;4.60;99.90;;;;;;5061856;28;20137;-78
2021/10/08 05:33:47;;;;;;;5.88;1.88;;;4.60;99.90;;;;;;5067570;28;20085;-82
2021/10/08 05:36:12;;;;;;;4.97;3.17;;;4.60;99.90;;;;;;5044811;28;20044;-79
2021/10/08 05:38:38;;;;;;;3.35;2.03;;;4.50;99.90;;;;;;5065070;28;20044;-79
2021/10/08 05:41:04;;;;;;;2.15;1.90;;;4.50;99.90;;;;;;5056098;28;20394;-80
2021/10/08 05:43:30;;;;;;;2.15;2.00;;;4.50;99.90;;;;;;5057594;28;20044;-81
2021/10/08 05:45:56;;;;;;;3.03;2.45;;;4.50;99.90;;;;;;5058005;28;20037;-80
2021/10/08 05:48:21;;;;;;;5.47;3.55;;;4.50;99.90;;;;;;5063357;28;20159;-80
2021/10/08 05:50:47;;;;;;;4.78;3.05;;;4.50;99.90;;;;;;5041124;28;20135;-80
2021/10/08 05:53:13;;;;;;;1.77;1.48;;;4.50;99.90;;;;;;5055120;28;20041;-80
2021/10/08 05:55:39;;;;;;;4.38;3.90;;;4.50;99.90;;;;;;5066375;28;20052;-81
2021/10/08 05:58:08;;;;;;;;;;;4.50;99.90;;;;;;5057876;28;20051;-80
2021/10/08 06:00:35;;;;;;;3.67;2.88;;;4.60;99.90;;;;;;5067282;28;20532;-81
2021/10/08 06:03:02;;;;;;;4.03;2.20;;;4.70;99.90;;;;;;5060958;28;20053;-81
2021/10/08 06:05:29;;;;;;;3.28;2.40;;;4.70;99.90;;;;;;5054071;28;20051;-80
2021/10/08 06:07:55;;;;;;;2.75;2.53;;;4.80;99.90;;;;;;5055203;28;20116;-80
2021/10/08 06:10:20;;;;;;;2.00;1.58;;;4.80;99.90;;;;;;5065984;28;20459;-80
2021/10/08 06:12:46;;;;;;;2.53;2.33;;;4.70;99.90;;;;;;5066693;28;20108;-79
2021/10/08 06:15:12;;;;;;;3.78;2.45;;;4.80;99.90;;;;;;5067192;28;20052;-78
2021/10/08 06:17:38;;;;;;;3.28;2.50;;;4.80;99.90;;;;;;5073865;28;20052;-77
2021/10/08 06:20:05;;;;;;;4.93;2.63;;;4.80;99.90;;;;;;5064960;28;20037;-79
2021/10/08 06:22:31;;;;;;;3.63;2.90;;;5.30;99.90;;;;;;5061693;28;20052;-81
2021/10/08 06:24:57;;;;;;;4.07;2.17;;;5.00;99.90;;;;;;5058244;28;20049;-80
2021/10/08 06:27:25;;;;;;;2.97;1.73;;;4.90;99.90;;;;;;5062158;28;20040;-78
2021/10/08 06:29:50;;;;;;;2.40;2.15;;;4.90;99.90;;;;;;5065879;28;20051;-79
2021/10/08 06:32:16;;;;;;;2.88;2.25;;;5.00;99.90;;;;;;5066703;28;20044;-79
2021/10/08 06:34:42;;;;;;;2.63;2.42;;;4.90;99.90;;;;;;5059739;28;20431;-79
2021/10/08 06:37:07;;;;;;;3.40;3.08;;;5.00;99.90;;;;;;5045945;28;20060;-80
2021/10/08 06:39:33;;;;;;;2.90;2.28;;;5.00;99.90;;;;;;5072929;28;20055;-77
2021/10/08 06:41:59;;;;;;;7.90;2.75;;;5.10;99.90;;;;;;5040348;28;20036;-80
2021/10/08 06:44:24;;;;;;;3.88;3.35;;;5.10;99.90;;;;;;5053274;28;20048;-79
2021/10/08 06:46:50;;;;;;;4.88;3.30;;;5.20;99.90;;;;;;5060111;28;20067;-80
2021/10/08 06:49:16;;;;;;;5.43;3.10;;;5.20;99.90;;;;;;5063762;28;20422;-79
2021/10/08 06:51:42;;;;;;;3.70;3.25;;;5.30;99.90;;;;;;5066206;28;20498;-80
2021/10/08 06:54:07;;;;;;;4.20;3.00;;;5.30;99.90;;;;;;5056010;28;20068;-77
2021/10/08 06:56:33;;;;;;;3.20;2.90;;;5.40;99.90;;;;;;5065120;28;20486;-80
2021/10/08 06:58:59;;;;;;;3.97;3.35;;;5.40;99.90;;;;;;5058856;28;20045;-78
2021/10/08 07:01:24;;;;;;;10.50;2.90;;;5.50;99.90;;;;;;5068993;28;20135;-79
2021/10/08 07:03:50;;;;;;;6.30;3.05;;;5.60;99.90;;;;;;5042293;28;20053;-78
2021/10/08 07:06:16;;;;;;;6.60;3.78;;;5.60;99.90;;;;;;5057772;28;20111;-80
2021/10/08 07:08:42;;;;;;;6.10;4.03;;;5.60;99.90;;;;;;5052969;28;20355;-78
2021/10/08 07:11:07;;;;;;;4.22;3.67;;;5.70;99.90;;;;;;5041221;28;20032;-79
2021/10/08 07:13:33;;;;;;;3.55;3.20;;;5.80;99.90;;;;;;5064419;28;20040;-82
2021/10/08 07:16:00;;;;;;;7.63;5.45;;;5.80;99.90;;;;;;5052350;28;20041;-82
2021/10/08 07:18:34;;;;;;;8.02;3.95;;;5.90;99.90;;;;;;5053178;28;20048;-81
2021/10/08 07:21:00;;;;;;;3.92;3.42;;;6.00;99.90;;;;;;5058184;28;20552;-81
2021/10/08 07:23:26;;;;;;;10.55;5.93;;;6.00;99.90;;;;;;5055435;28;20040;-84
2021/10/08 07:25:52;;;;;;;6.70;3.72;;;6.10;99.90;;;;;;5052175;28;20483;-83
2021/10/08 07:28:19;;;;;;;9.48;4.55;;;6.20;99.90;;;;;;5051615;28;20033;-83
2021/10/08 07:30:44;;;;;;;5.15;3.67;;;6.20;99.90;;;;;;5058008;28;20204;-84
2021/10/08 07:33:10;;;;;;;5.70;4.32;;;6.70;99.90;;;;;;5052766;28;20077;-84
2021/10/08 07:35:36;;;;;;;5.65;5.15;;;6.40;99.90;;;;;;5065890;28;20442;-84
2021/10/08 07:38:02;;;;;;;13.10;5.50;;;6.50;99.90;;;;;;5041049;28;20036;-84
2021/10/08 07:40:28;;;;;;;9.40;4.95;;;6.60;99.90;;;;;;5071402;28;20157;-85
2021/10/08 07:42:54;;;;;;;6.53;4.03;;;6.70;99.90;;;;;;5062357;28;20045;-86
2021/10/08 07:45:20;;;;;;;5.07;4.28;;;6.80;99.90;;;;;;5051379;28;20104;-80
2021/10/08 07:47:45;;;;;;;10.75;5.93;;;6.80;99.90;;;;;;5072062;28;20040;-83
2021/10/08 07:50:13;;;;;;;8.32;5.10;;;7.00;99.90;;;;;;5064437;28;20088;-80
2021/10/08 07:52:39;;;;;;;7.35;5.45;;;7.00;99.90;;;;;;5064856;28;20406;-78
2021/10/08 07:55:06;;;;;;;15.68;6.25;;;7.00;99.90;;;;;;5053491;28;20044;-85
2021/10/08 07:57:32;;;;;;;7.40;6.13;;;7.10;99.90;;;;;;5047335;28;20048;-80
2021/10/08 07:59:57;;;;;;;5.78;2.63;;;7.20;99.90;;;;;;5064707;28;20060;-81
2021/10/08 08:02:23;;;;;;;8.07;4.90;;;7.30;99.90;;;;;;5061644;28;20049;-83
2021/10/08 08:04:50;;;;;;;14.98;6.43;;;7.40;99.90;;;;;;5065235;28;20040;-79
2021/10/08 08:07:16;;;;;;;12.02;6.03;;;7.40;99.90;;;;;;5041158;28;20051;-80
2021/10/08 08:09:41;;;;;;;11.20;6.20;;;7.50;99.90;;;;;;5057331;28;20090;-81
2021/10/08 08:12:08;;;;;;;10.07;5.65;;;7.60;99.90;;;;;;5057248;28;20115;-80
2021/10/08 08:14:33;;;;;;;12.13;6.43;;;7.70;99.90;;;;;;5060016;28;20052;-84
2021/10/08 08:16:59;;;;;;;11.50;4.93;;;7.80;99.90;;;;;;5063135;28;20048;-82
2021/10/08 08:19:25;;;;;;;8.63;6.45;;;7.90;99.90;;;;;;5055926;28;20052;-81
2021/10/08 08:21:51;;;;;;;11.10;5.82;;;8.00;99.90;;;;;;5040209;28;20052;-83
2021/10/08 08:24:16;;;;;;;9.10;6.00;;;8.10;99.90;;;;;;5054510;28;20082;-83
2021/10/08 08:26:42;;;;;;;10.70;7.30;;;8.20;99.90;;;;;;5046479;28;20068;-77
2021/10/08 08:29:08;;;;;;;7.57;4.78;;;8.20;99.90;;;;;;5061089;28;20051;-79
2021/10/08 08:31:34;;;;;;;8.45;5.28;;;8.40;99.90;;;;;;5055698;28;20091;-76
2021/10/08 08:33:59;;;;;;;13.07;7.78;;;8.40;99.90;;;;;;5057394;28;20158;-76
2021/10/08 08:36:25;;;;;;;10.23;8.60;;;8.50;99.90;;;;;;5059600;28;20040;-78
2021/10/08 08:38:51;;;;;;;14.93;7.93;;;8.60;99.90;;;;;;5054630;28;20131;-77
2021/10/08 08:41:19;;;;;;;12.40;6.57;;;8.70;99.90;;;;;;5060338;28;20045;-83
2021/10/08 08:43:45;;;;;;;11.98;6.68;;;8.80;99.90;;;;;;5043133;28;20043;-82
2021/10/08 08:46:12;;;;;;;;;;;8.90;99.90;;;;;;5066501;28;20032;-82
2021/10/08 08:48:38;;;;;;;13.00;6.75;;;9.00;99.90;;;;;;5068946;28;20325;-81
2021/10/08 08:51:04;;;;;;;18.38;8.45;;;9.10;99.90;;;;;;5033364;28;20047;-84
2021/10/08 08:53:31;;;;;;;15.10;6.22;;;9.10;99.90;;;;;;5061307;28;20051;-82
2021/10/08 08:55:56;;;;;;;12.18;5.97;;;9.20;99.90;;;;;;5039045;28;20089;-84
2021/10/08 08:58:22;;;;;;;11.98;6.32;;;9.30;99.90;;;;;;5061844;28;20486;-85
2021/10/08 09:00:58;;;;;;;7.72;5.47;;;9.40;99.90;;;;;;5050964;28;20388;-85
2021/10/08 09:03:24;;;;;;;9.23;7.35;;;9.40;99.90;;;;;;5065095;28;20068;-81
2021/10/08 09:05:50;;;;;;;;;;;9.60;99.90;;;;;;5063425;28;20033;-81
2021/10/08 09:08:16;;;;;;;11.63;7.10;;;9.70;99.90;;;;;;5064582;28;19916;-81
2021/10/08 09:10:46;;;;;;;10.75;6.55;;;9.80;99.90;;;;;;5048189;28;20500;-80
2021/10/08 09:13:14;;;;;;;9.65;5.47;;;9.80;99.90;;;;;;5054691;28;20044;-80
2021/10/08 09:15:49;;;;;;;11.18;6.82;;;9.90;99.90;;;;;;5040241;28;20048;-81
2021/10/08 09:18:17;;;;;;;7.70;5.32;;;10.00;99.90;;;;;;5050802;28;20055;-82
2021/10/08 09:21:03;;;;;;;11.90;6.25;;;10.10;99.90;;;;;;5056933;28;20051;-84
2021/10/08 09:23:47;;;;;;;8.70;6.35;;;10.20;99.90;;;;;;5043762;28;20489;-82
2021/10/08 09:26:21;;;;;;;5.38;4.88;;;10.40;99.90;;;;;;5056002;28;20060;-80
2021/10/08 09:29:01;;;;;;;12.00;6.10;;;10.50;99.90;;;;;;5057733;28;20074;-78
2021/10/08 09:31:37;;;;;;;12.35;7.18;;;10.60;99.90;;;;;;5049189;28;20067;-79
2021/10/08 09:34:18;;;;;;;6.97;4.68;;;10.70;99.90;;;;;;5054063;28;20032;-82
2021/10/08 09:36:49;;;;;;;11.65;8.30;;;10.80;99.90;;;;;;5053857;28;20117;-81
2021/10/08 09:39:44;;;;;;;10.80;6.05;;;10.90;99.90;;;;;;5061304;28;20033;-80
2021/10/08 09:42:12;;;;;;;9.95;6.13;;;11.00;99.90;;;;;;5066439;28;20162;-80
2021/10/08 09:44:49;;;;;;;12.50;6.70;;;11.10;99.90;;;;;;5063881;28;20049;-82
2021/10/08 09:47:21;;;;;;;15.52;7.50;;;11.30;99.90;;;;;;5061283;28;20094;-79
2021/10/08 09:49:49;;;;;;;10.90;5.72;;;11.40;99.90;;;;;;5073526;28;20045;-80
2021/10/08 09:52:29;;;;;;;11.20;6.40;;;11.50;99.90;;;;;;5068513;28;20078;-80
2021/10/08 09:54:57;;;;;;;9.60;6.20;;;11.60;99.90;;;;;;5059783;28;20056;-82
2021/10/08 09:57:27;;;;;;;10.48;5.28;;;11.70;99.90;;;;;;5058561;28;20051;-80
2021/10/08 09:59:55;;;;;;;15.38;8.68;;;11.80;99.90;;;;;;5053719;28;20386;-82
2021/10/08 10:02:22;;;;;;;16.40;7.65;;;11.90;99.90;;;;;;5059532;28;20082;-83
2021/10/08 10:04:55;;;;;;;13.30;7.22;;;12.10;99.90;;;;;;5059052;28;20044;-83
2021/10/08 10:07:23;;;;;;;10.95;6.55;;;12.20;99.90;;;;;;5068574;28;20083;-83
2021/10/08 10:09:50;;;;;;;13.32;7.35;;;12.30;99.90;;;;;;5067641;28;20049;-80
2021/10/08 10:12:18;;;;;;;16.15;8.25;;;12.40;99.90;;;;;;5061101;28;20052;-81
2021/10/08 10:14:46;;;;;;;13.18;7.88;;;12.50;99.90;;;;;;5048607;28;20040;-79
2021/10/08 10:17:13;;;;;;;10.93;6.97;;;12.60;99.90;;;;;;5066725;28;20049;-82
2021/10/08 10:19:45;;;;;;;12.90;6.85;;;12.70;99.90;;;;;;5065170;28;20387;-81
2021/10/08 10:22:19;;;;;;;13.38;7.03;;;12.80;99.90;;;;;;5061461;28;20486;-80
2021/10/08 10:24:49;;;;;;;14.95;8.80;;;12.90;99.90;;;;;;5057468;28;20037;-81
2021/10/08 10:27:16;;;;;;;12.60;7.38;;;13.00;99.90;;;;;;5056944;28;20076;-82
2021/10/08 10:29:45;;;;;;;14.23;6.65;;;13.10;99.90;;;;;;5065034;28;20056;-82
2021/10/08 10:32:11;;;;;;;16.15;8.20;;;13.20;99.90;;;;;;5068666;28;20105;-82
2021/10/08 10:34:39;;;;;;;13.63;6.85;;;13.30;99.90;;;;;;5061489;28;20084;-82
2021/10/08 10:37:06;;;;;;;10.07;5.72;;;13.50;99.90;;;;;;5061645;28;20129;-82
2021/10/08 10:39:32;;;;;;;10.63;5.13;;;13.50;99.90;;;;;;5060260;28;20086;-82
2021/10/08 10:42:04;;;;;;;12.85;7.28;;;13.60;99.90;;;;;;5062898;28;20044;-81
2021/10/08 10:44:38;;;;;;;9.68;6.75;;;13.70;99.90;;;;;;5073232;28;20474;-85
2021/10/08 10:52:17;;;;;;;13.25;7.78;;;14.00;99.90;;;;;;5058894;28;20056;-83
2021/10/08 10:54:52;;;;;;;7.13;5.60;;;14.10;99.90;;;;;;5045976;28;20047;-81
2021/10/08 10:57:29;;;;;;;10.00;4.97;;;14.20;99.90;;;;;;5053970;28;20067;-81
2021/10/08 11:00:27;;;;;;;14.30;5.95;;;14.30;99.90;;;;;;5052499;28;20084;-82
2021/10/08 11:03:09;;;;;;;11.25;6.50;;;14.30;99.90;;;;;;5064912;28;20494;-83
2021/10/08 11:05:38;;;;;;;8.70;5.22;;;14.50;99.90;;;;;;5066841;28;20044;-83
2021/10/08 11:08:16;;;;;;;9.77;4.72;;;14.60;99.90;;;;;;5053347;28;20037;-81
2021/10/08 11:11:06;;;;;;;8.30;5.70;;;14.60;99.90;;;;;;5052345;28;20037;-82
2021/10/08 11:13:34;;;;;;;6.63;4.82;;;14.70;99.90;;;;;;5037372;28;20059;-82
2021/10/08 11:16:05;;;;;;;8.50;5.15;;;14.80;99.90;;;;;;5073241;28;20481;-80
2021/10/08 11:18:49;;;;;;;6.85;4.60;;;14.90;99.90;;;;;;5062523;28;20482;-81
2021/10/08 11:21:30;;;;;;;6.60;4.47;;;15.00;99.90;;;;;;5053473;28;20418;-80
2021/10/08 11:24:21;;;;;;;7.35;4.90;;;15.00;99.90;;;;;;5052834;28;20118;-80
2021/10/08 11:26:56;;;;;;;7.63;4.65;;;15.10;99.90;;;;;;5067869;28;20391;-81
2021/10/08 11:29:22;;;;;;;8.90;4.90;;;15.20;99.90;;;;;;5057723;28;20052;-80
2021/10/08 11:31:59;;;;;;;6.82;3.70;;;15.20;99.90;;;;;;5036063;28;20056;-80
2021/10/08 11:34:24;;;;;;;8.57;4.80;;;15.30;99.90;;;;;;5065916;28;20047;-82
2021/10/08 11:36:59;;;;;;;5.57;3.63;;;15.40;99.90;;;;;;5061060;28;20048;-82
2021/10/08 11:39:26;;;;;;;6.57;4.70;;;15.40;99.90;;;;;;5072143;28;20052;-81
2021/10/08 11:42:01;;;;;;;9.48;4.13;;;15.50;99.90;;;;;;5063442;28;20317;-82
2021/10/08 11:44:35;;;;;;;6.82;4.97;;;15.60;99.90;;;;;;5051877;28;20055;-81
2021/10/08 11:47:47;;;;;;;5.65;3.70;;;15.70;99.90;;;;;;5065643;28;20049;-81
2021/10/08 11:50:41;;;;;;;3.42;2.88;;;15.70;99.90;;;;;;5059397;28;20547;-82
2021/10/08 11:52:56;;;;;;;4.03;3.50;;;15.80;99.90;;;;;;5060180;28;20057;-82
2021/10/08 11:55:27;;;;;;;5.38;3.42;;;15.80;99.90;;;;;;5072190;28;20106;-82
2021/10/08 11:57:56;;;;;;;3.38;2.38;;;15.90;99.90;;;;;;5072093;28;20432;-83
2021/10/08 12:00:25;;;;;;;5.65;2.90;;;16.00;99.90;;;;;;5068243;28;20061;-81
2021/10/08 12:02:59;;;;;;;4.40;2.67;;;16.00;99.90;;;;;;5054261;28;20041;-81
2021/10/08 12:05:25;;;;;;;4.38;3.47;;;16.10;99.90;;;;;;5071267;28;20037;-82
2021/10/08 12:08:01;;;;;;;7.05;3.95;;;16.20;99.90;;;;;;5042260;28;20037;-81
2021/10/08 12:10:27;;;;;;;5.07;3.53;;;16.20;99.90;;;;;;5052090;28;20080;-81
2021/10/08 12:12:55;;;;;;;5.55;3.95;;;16.20;99.90;;;;;;5035151;28;20045;-80
2021/10/08 12:15:28;;;;;;;4.72;2.65;;;16.30;99.90;;;;;;5068462;28;20049;-82
2021/10/08 12:17:56;;;;;;;6.50;3.08;;;16.40;99.90;;;;;;5070976;28;20478;-79
2021/10/08 12:20:26;;;;;;;4.47;2.78;;;16.50;99.90;;;;;;5072096;28;20146;-80
2021/10/08 12:23:24;;;;;;;3.55;2.47;;;16.70;99.90;;;;;;5062694;28;20086;-80
2021/10/08 12:25:54;;;;;;;4.28;2.17;;;16.80;99.90;;;;;;5048865;28;20040;-80
2021/10/08 12:28:24;;;;;;;3.63;2.60;;;16.90;99.90;;;;;;5063744;28;20056;-80
2021/10/08 12:30:56;;;;;;;4.68;2.72;;;17.00;99.90;;;;;;5065048;28;20047;-80
2021/10/08 12:33:28;;;;;;;3.92;2.65;;;17.10;99.90;;;;;;5061201;28;20452;-80
2021/10/08 12:36:14;;;;;;;3.20;2.10;;;17.30;99.90;;;;;;5058008;28;20109;-81
2021/10/08 12:38:51;;;;;;;4.88;2.72;;;17.50;99.90;;;;;;5044459;28;20041;-81
2021/10/08 12:41:53;;;;;;;3.00;2.55;;;17.50;99.90;;;;;;5057471;28;20075;-80
2021/10/08 12:44:25;;;;;;;4.53;2.50;;;17.60;99.90;;;;;;5055561;28;20102;-80
2021/10/08 12:47:08;;;;;;;4.53;2.45;;;17.60;99.90;;;;;;5051229;28;20115;-80
2021/10/08 12:49:49;;;;;;;4.13;2.30;;;17.60;99.90;;;;;;5059828;28;20111;-82
2021/10/08 12:52:16;;;;;;;2.63;2.00;;;17.60;99.90;;;;;;5053822;28;20048;-81
2021/10/08 12:55:00;;;;;;;3.85;2.42;;;17.40;99.90;;;;;;5051303;28;20052;-82
2021/10/08 12:57:26;;;;;;;3.53;2.10;;;17.30;99.90;;;;;;5058331;28;20044;-80
2021/10/08 12:59:54;;;;;;;4.50;2.25;;;17.40;99.90;;;;;;5057016;28;20049;-80
2021/10/08 13:02:40;;;;;;;4.88;2.33;;;17.50;99.90;;;;;;5067402;28;20437;-80
2021/10/08 13:05:07;;;;;;;2.75;2.40;;;17.50;99.90;;;;;;5053869;28;20104;-79
2021/10/08 13:07:33;;;;;;;4.45;2.80;;;17.40;99.90;;;;;;5060912;28;20052;-80
2021/10/08 13:10:12;;;;;;;;;;;17.50;99.90;;;;;;5054229;28;20044;-80